| Date | Time | Temp. (oF) | Dew Point (oF) | Rel. Hum. (%) | Press. (in.) | Wind Dir. | Wind Speed (mph) | Hourly Rainfall (in.) |
|
|---|---|---|---|---|---|---|---|---|---|
| 1 | 07/07 | 00:00 | 71 | 59 | 68 | 29.77 | SW | 0 | 0.00 |
| 2 | 07/06 | 23:00 | 71 | 59 | 67 | 29.77 | SW | 0 | 0.00 |
| 3 | 07/06 | 22:00 | 73 | 59 | 63 | 29.77 | SSW | 0 | 0.00 |
| 4 | 07/06 | 21:00 | 75 | 59 | 58 | 29.74 | SSW | 2 | 0.00 |
| 5 | 07/06 | 20:00 | 80 | 59 | 50 | 29.73 | S | 4 | 0.00 |
| 6 | 07/06 | 19:00 | 82 | 55 | 41 | 29.71 | WSW | 5 | 0.00 |
| 7 | 07/06 | 18:00 | 83 | 55 | 40 | 29.71 | SW | 3 | 0.00 |
| 8 | 07/06 | 17:00 | 83 | 55 | 40 | 29.71 | WNW | 7 | 0.00 |
| 9 | 07/06 | 16:00 | 84 | 56 | 39 | 29.74 | N | 2 | 0.00 |
| 10 | 07/06 | 15:00 | 83 | 55 | 40 | 29.76 | WNW | 7 | 0.00 |
| 11 | 07/06 | 14:00 | 82 | 56 | 42 | 29.77 | NW | 7 | 0.00 |
| 12 | 07/06 | 13:00 | 81 | 56 | 44 | 29.78 | SW | 8 | 0.00 |
| 13 | 07/06 | 12:00 | 79 | 57 | 48 | 29.79 | WSW | 6 | 0.00 |
| 14 | 07/06 | 11:00 | 77 | 61 | 60 | 29.80 | SSW | 1 | 0.00 |
| 15 | 07/06 | 10:00 | 73 | 63 | 72 | 29.80 | SW | 0 | 0.00 |
| 16 | 07/06 | 09:00 | 70 | 64 | 84 | 29.82 | NE | 0 | 0.00 |
| 17 | 07/06 | 08:00 | 62 | 61 | 98 | 29.81 | SSW | 0 | 0.00 |
| 18 | 07/06 | 07:00 | 57 | 56 | 98 | 29.81 | NNE | 0 | 0.00 |
| 19 | 07/06 | 06:00 | 57 | 56 | 97 | 29.80 | NNE | 0 | 0.00 |
| 20 | 07/06 | 05:00 | 57 | 55 | 96 | 29.80 | SW | 0 | 0.00 |
| 21 | 07/06 | 04:00 | 59 | 57 | 95 | 29.81 | SW | 0 | 0.00 |
| 22 | 07/06 | 03:00 | 59 | 56 | 93 | 29.81 | SW | 0 | 0.00 |
| 23 | 07/06 | 02:00 | 61 | 58 | 91 | 29.81 | SW | 0 | 0.00 |
| 24 | miss | miss | miss | miss | miss | miss | miss | miss | |
| 25 | 07/06 | 01:19 | 62 | 58 | 89 | 29.81 | SW | 0 | 0.00 |
| 26 | miss | miss | miss | miss | miss | miss | miss | miss | |
| 27 | 07/06 | 01:19 | 62 | 58 | 89 | 29.81 | SW | 0 | 0.00 |
| 28 | miss | miss | miss | miss | miss | miss | miss | miss | |
| 29 | 07/06 | 01:19 | 62 | 58 | 89 | 29.81 | SW | 0 | 0.00 |
| 30 | miss | miss | miss | miss | miss | miss | miss | miss | |
| 31 | 07/06 | 01:19 | 62 | 58 | 89 | 29.81 | SW | 0 | 0.00 |
| 32 | miss | miss | miss | miss | miss | miss | miss | miss | |
| 33 | 07/06 | 01:19 | 62 | 58 | 89 | 29.81 | SW | 0 | 0.00 |
| 34 | miss | miss | miss | miss | miss | miss | miss | miss | |
| 35 | 07/06 | 01:19 | 62 | 58 | 89 | 29.81 | SW | 0 | 0.00 |
| 36 | miss | miss | miss | miss | miss | miss | miss | miss | |
| 37 | 07/06 | 01:19 | 62 | 58 | 89 | 29.81 | SW | 0 | 0.00 |
| 38 | miss | miss | miss | miss | miss | miss | miss | miss | |
| 39 | 07/06 | 01:19 | 62 | 58 | 89 | 29.81 | SW | 0 | 0.00 |
| 40 | miss | miss | miss | miss | miss | miss | miss | miss | |
| 41 | 07/06 | 01:19 | 62 | 58 | 89 | 29.81 | SW | 0 | 0.00 |
| 42 | miss | miss | miss | miss | miss | miss | miss | miss | |
| 43 | 07/06 | 01:19 | 62 | 58 | 89 | 29.81 | SW | 0 | 0.00 |
| 44 | miss | miss | miss | miss | miss | miss | miss | miss | |
| 45 | 07/06 | 01:19 | 62 | 58 | 89 | 29.81 | SW | 0 | 0.00 |
| 46 | miss | miss | miss | miss | miss | miss | miss | miss | |
| 47 | 07/06 | 01:19 | 62 | 58 | 89 | 29.81 | SW | 0 | 0.00 |
| 48 | 07/06 | 01:00 | 62 | 58 | 87 | 29.81 | SW | 0 | 0.00 |
| 49 | 07/06 | 00:00 | 64 | 58 | 83 | 29.82 | SW | 0 | 0.00 |
| 50 | 07/05 | 23:00 | 66 | 59 | 79 | 29.83 | SSW | 0 | 0.00 |
| 51 | 07/05 | 22:00 | 68 | 59 | 75 | 29.82 | SSW | 0 | 0.00 |
| 52 | 07/05 | 21:00 | 70 | 58 | 66 | 29.80 | SSW | 0 | 0.00 |
| 53 | 07/05 | 20:00 | 77 | 56 | 49 | 29.79 | SSE | 0 | 0.00 |
| 54 | 07/05 | 19:00 | 78 | 55 | 46 | 29.80 | SW | 0 | 0.00 |
| 55 | 07/05 | 18:00 | 78 | 55 | 47 | 29.80 | SSW | 3 | 0.00 |
| 56 | 07/05 | 17:00 | 78 | 57 | 49 | 29.81 | NNW | 0 | 0.00 |
| 57 | 07/05 | 16:00 | 78 | 56 | 48 | 29.84 | SW | 3 | 0.00 |
| 58 | 07/05 | 15:00 | 77 | 58 | 53 | 29.86 | SSW | 3 | 0.00 |
| 59 | miss | miss | miss | miss | miss | miss | miss | miss | |
| 60 | 07/05 | 14:41 | 77 | 57 | 51 | 29.87 | SW | 6 | 0.00 |
| 61 | miss | miss | miss | miss | miss | miss | miss | miss | |
| 62 | 07/05 | 14:39 | 77 | 56 | 50 | 29.87 | W | 5 | 0.00 |
| 63 | miss | miss | miss | miss | miss | miss | miss | miss | |
| 64 | 07/05 | 14:37 | 76 | 54 | 48 | 29.87 | WNW | 4 | 0.00 |
| 65 | miss | miss | miss | miss | miss | miss | miss | miss | |
| 66 | 07/05 | 14:35 | 76 | 58 | 54 | 29.87 | SW | 6 | 0.00 |
| 67 | miss | miss | miss | miss | miss | miss | miss | miss | |
| 68 | 07/05 | 14:33 | 76 | 58 | 55 | 29.87 | S | 1 | 0.00 |
| 69 | miss | miss | miss | miss | miss | miss | miss | miss | |
| 70 | 07/05 | 14:31 | 75 | 55 | 51 | 29.87 | W | 0 | 0.00 |
| 71 | miss | miss | miss | miss | miss | miss | miss | miss | |
| 72 | 07/05 | 14:29 | 76 | 56 | 51 | 29.87 | SSE | 0 | 0.00 |
| 73 | miss | miss | miss | miss | miss | miss | miss | miss | |
| 74 | 07/05 | 14:28 | 76 | 55 | 50 | 29.87 | SSW | 3 | 0.00 |
| 75 | miss | miss | miss | miss | miss | miss | miss | miss | |
| 76 | 07/05 | 14:28 | 76 | 55 | 50 | 29.87 | SSW | 3 | 0.00 |
| 77 | miss | miss | miss | miss | miss | miss | miss | miss | |
| 78 | 07/05 | 14:28 | 76 | 55 | 50 | 29.87 | SSW | 3 | 0.00 |
| 79 | miss | miss | miss | miss | miss | miss | miss | miss | |
| 80 | 07/05 | 14:28 | 76 | 55 | 50 | 29.87 | SSW | 3 | 0.00 |
| 81 | miss | miss | miss | miss | miss | miss | miss | miss | |
| 82 | 07/05 | 14:28 | 76 | 55 | 50 | 29.87 | SSW | 3 | 0.00 |
| 83 | 07/05 | 14:00 | 76 | 55 | 50 | 29.88 | S | 4 | 0.00 |
| 84 | 07/05 | 13:00 | 76 | 54 | 47 | 29.90 | WSW | 0 | 0.00 |
| 85 | 07/05 | 12:00 | 75 | 54 | 49 | 29.93 | W | 4 | 0.00 |
| 86 | 07/05 | 11:00 | 72 | 57 | 60 | 29.93 | SW | 1 | 0.00 |
| 87 | 07/05 | 10:00 | 70 | 54 | 58 | 29.95 | NE | 2 | 0.00 |
| 88 | 07/05 | 09:00 | 70 | 55 | 61 | 29.95 | ESE | 4 | 0.00 |
| 89 | 07/05 | 08:00 | 65 | 55 | 72 | 29.96 | N | 0 | 0.00 |
| 90 | 07/05 | 07:00 | 58 | 55 | 92 | 29.95 | NW | 0 | 0.00 |
| 91 | 07/05 | 06:00 | 57 | 53 | 89 | 29.94 | NW | 0 | 0.00 |
| 92 | 07/05 | 05:00 | 59 | 54 | 84 | 29.93 | NW | 0 | 0.00 |
| 93 | 07/05 | 04:00 | 62 | 54 | 76 | 29.93 | NW | 0 | 0.00 |
| 94 | 07/05 | 03:00 | 64 | 53 | 70 | 29.92 | NW | 0 | 0.00 |
| 95 | 07/05 | 02:00 | 66 | 54 | 66 | 29.92 | NNW | 0 | 0.00 |
| 96 | 07/05 | 01:00 | 67 | 53 | 63 | 29.92 | NW | 0 | 0.00 |
| 97 | 07/05 | 00:00 | 69 | 54 | 59 | 29.91 | NW | 0 | 0.00 |